sensor_id;sensor_type;location;lat;lon;timestamp;P1;durP1;ratioP1;P2;durP2;ratioP2
18206;SDS011;9229;52.354;20.886;2023-01-23T00:04:34;27.55;;;12.10;;
18206;SDS011;9229;52.354;20.886;2023-01-23T00:09:37;22.20;;;10.85;;
18206;SDS011;9229;52.354;20.886;2023-01-23T00:14:40;22.75;;;11.00;;
18206;SDS011;9229;52.354;20.886;2023-01-23T00:19:42;25.60;;;12.23;;
18206;SDS011;9229;52.354;20.886;2023-01-23T00:24:46;24.15;;;11.10;;
18206;SDS011;9229;52.354;20.886;2023-01-23T00:29:48;22.55;;;10.68;;
18206;SDS011;9229;52.354;20.886;2023-01-23T00:34:53;21.48;;;10.27;;
18206;SDS011;9229;52.354;20.886;2023-01-23T00:39:56;24.58;;;11.93;;
18206;SDS011;9229;52.354;20.886;2023-01-23T00:44:58;26.15;;;10.40;;
18206;SDS011;9229;52.354;20.886;2023-01-23T00:50:03;24.08;;;11.13;;
18206;SDS011;9229;52.354;20.886;2023-01-23T00:55:08;30.75;;;11.48;;
18206;SDS011;9229;52.354;20.886;2023-01-23T01:00:11;22.33;;;9.77;;
18206;SDS011;9229;52.354;20.886;2023-01-23T01:05:13;25.90;;;10.65;;
18206;SDS011;9229;52.354;20.886;2023-01-23T01:10:21;24.70;;;11.43;;
18206;SDS011;9229;52.354;20.886;2023-01-23T01:15:28;20.15;;;10.65;;
18206;SDS011;9229;52.354;20.886;2023-01-23T01:20:31;25.15;;;10.57;;
18206;SDS011;9229;52.354;20.886;2023-01-23T01:25:34;20.83;;;10.70;;
18206;SDS011;9229;52.354;20.886;2023-01-23T01:30:37;29.67;;;11.77;;
18206;SDS011;9229;52.354;20.886;2023-01-23T01:35:40;27.65;;;12.45;;
18206;SDS011;9229;52.354;20.886;2023-01-23T01:40:44;27.40;;;11.88;;
18206;SDS011;9229;52.354;20.886;2023-01-23T01:46:02;21.60;;;10.80;;
18206;SDS011;9229;52.354;20.886;2023-01-23T01:51:07;30.70;;;11.52;;
18206;SDS011;9229;52.354;20.886;2023-01-23T01:56:14;25.27;;;12.45;;
18206;SDS011;9229;52.354;20.886;2023-01-23T02:01:19;18.73;;;9.75;;
18206;SDS011;9229;52.354;20.886;2023-01-23T02:06:22;23.15;;;11.10;;
18206;SDS011;9229;52.354;20.886;2023-01-23T02:11:27;28.73;;;11.93;;
18206;SDS011;9229;52.354;20.886;2023-01-23T02:16:30;26.60;;;12.00;;
18206;SDS011;9229;52.354;20.886;2023-01-23T02:21:39;23.65;;;10.88;;
18206;SDS011;9229;52.354;20.886;2023-01-23T02:26:45;24.95;;;11.82;;
18206;SDS011;9229;52.354;20.886;2023-01-23T02:31:47;24.00;;;11.52;;
18206;SDS011;9229;52.354;20.886;2023-01-23T02:36:53;20.85;;;10.77;;
18206;SDS011;9229;52.354;20.886;2023-01-23T02:41:58;25.20;;;10.93;;
18206;SDS011;9229;52.354;20.886;2023-01-23T02:47:16;22.65;;;11.65;;
18206;SDS011;9229;52.354;20.886;2023-01-23T02:52:18;26.60;;;13.10;;
18206;SDS011;9229;52.354;20.886;2023-01-23T02:57:21;28.05;;;11.52;;
18206;SDS011;9229;52.354;20.886;2023-01-23T03:02:23;29.33;;;12.00;;
18206;SDS011;9229;52.354;20.886;2023-01-23T03:07:26;23.83;;;11.18;;
18206;SDS011;9229;52.354;20.886;2023-01-23T03:12:30;27.08;;;11.82;;
18206;SDS011;9229;52.354;20.886;2023-01-23T03:17:32;32.40;;;11.82;;
18206;SDS011;9229;52.354;20.886;2023-01-23T03:22:34;27.00;;;11.98;;
18206;SDS011;9229;52.354;20.886;2023-01-23T03:27:43;29.77;;;12.38;;
18206;SDS011;9229;52.354;20.886;2023-01-23T03:32:45;25.05;;;10.48;;
18206;SDS011;9229;52.354;20.886;2023-01-23T03:37:48;32.95;;;11.23;;
18206;SDS011;9229;52.354;20.886;2023-01-23T03:42:53;27.15;;;11.48;;
18206;SDS011;9229;52.354;20.886;2023-01-23T03:48:00;25.27;;;11.25;;
18206;SDS011;9229;52.354;20.886;2023-01-23T03:53:03;27.10;;;12.18;;
18206;SDS011;9229;52.354;20.886;2023-01-23T03:58:07;32.95;;;12.75;;
18206;SDS011;9229;52.354;20.886;2023-01-23T04:03:16;34.15;;;12.10;;
18206;SDS011;9229;52.354;20.886;2023-01-23T04:08:18;27.25;;;11.27;;
18206;SDS011;9229;52.354;20.886;2023-01-23T04:13:24;28.00;;;11.48;;
18206;SDS011;9229;52.354;20.886;2023-01-23T04:18:26;27.20;;;11.50;;
18206;SDS011;9229;52.354;20.886;2023-01-23T04:23:28;34.42;;;12.10;;
18206;SDS011;9229;52.354;20.886;2023-01-23T04:28:32;24.38;;;11.48;;
18206;SDS011;9229;52.354;20.886;2023-01-23T04:33:36;35.60;;;12.23;;
18206;SDS011;9229;52.354;20.886;2023-01-23T04:38:39;30.30;;;12.57;;
18206;SDS011;9229;52.354;20.886;2023-01-23T04:43:55;25.50;;;12.45;;
18206;SDS011;9229;52.354;20.886;2023-01-23T04:49:20;31.45;;;12.13;;
18206;SDS011;9229;52.354;20.886;2023-01-23T04:54:24;38.85;;;13.88;;
18206;SDS011;9229;52.354;20.886;2023-01-23T04:59:28;24.38;;;10.70;;
18206;SDS011;9229;52.354;20.886;2023-01-23T05:04:31;31.83;;;12.45;;
18206;SDS011;9229;52.354;20.886;2023-01-23T05:09:33;25.63;;;11.43;;
18206;SDS011;9229;52.354;20.886;2023-01-23T05:14:38;27.67;;;12.10;;
18206;SDS011;9229;52.354;20.886;2023-01-23T05:19:41;29.00;;;13.25;;
18206;SDS011;9229;52.354;20.886;2023-01-23T05:24:43;34.60;;;12.73;;
18206;SDS011;9229;52.354;20.886;2023-01-23T05:29:47;25.40;;;11.15;;
18206;SDS011;9229;52.354;20.886;2023-01-23T05:34:54;27.20;;;11.82;;
18206;SDS011;9229;52.354;20.886;2023-01-23T05:40:00;30.17;;;11.77;;
18206;SDS011;9229;52.354;20.886;2023-01-23T05:45:23;29.83;;;12.65;;
18206;SDS011;9229;52.354;20.886;2023-01-23T05:50:26;35.20;;;12.18;;
18206;SDS011;9229;52.354;20.886;2023-01-23T05:55:28;31.52;;;12.10;;
18206;SDS011;9229;52.354;20.886;2023-01-23T06:00:32;31.92;;;12.85;;
18206;SDS011;9229;52.354;20.886;2023-01-23T06:06:06;27.10;;;11.50;;
18206;SDS011;9229;52.354;20.886;2023-01-23T06:11:09;33.25;;;12.82;;
18206;SDS011;9229;52.354;20.886;2023-01-23T06:16:12;29.80;;;12.63;;
18206;SDS011;9229;52.354;20.886;2023-01-23T06:21:14;29.63;;;11.07;;
18206;SDS011;9229;52.354;20.886;2023-01-23T06:26:17;34.60;;;12.35;;
18206;SDS011;9229;52.354;20.886;2023-01-23T06:31:21;25.00;;;11.50;;
18206;SDS011;9229;52.354;20.886;2023-01-23T06:36:27;31.90;;;11.95;;
18206;SDS011;9229;52.354;20.886;2023-01-23T06:41:29;33.63;;;11.30;;
18206;SDS011;9229;52.354;20.886;2023-01-23T06:46:37;25.85;;;12.23;;
18206;SDS011;9229;52.354;20.886;2023-01-23T06:51:40;28.02;;;12.60;;
18206;SDS011;9229;52.354;20.886;2023-01-23T06:56:50;27.88;;;12.43;;
18206;SDS011;9229;52.354;20.886;2023-01-23T07:02:01;29.80;;;13.10;;
18206;SDS011;9229;52.354;20.886;2023-01-23T07:07:11;35.85;;;12.95;;
18206;SDS011;9229;52.354;20.886;2023-01-23T07:12:14;28.98;;;12.88;;
18206;SDS011;9229;52.354;20.886;2023-01-23T07:17:20;36.75;;;13.73;;
18206;SDS011;9229;52.354;20.886;2023-01-23T07:22:22;29.63;;;12.43;;
18206;SDS011;9229;52.354;20.886;2023-01-23T07:27:23;29.42;;;14.10;;
18206;SDS011;9229;52.354;20.886;2023-01-23T07:32:27;29.02;;;12.68;;
18206;SDS011;9229;52.354;20.886;2023-01-23T07:37:31;27.83;;;11.75;;
18206;SDS011;9229;52.354;20.886;2023-01-23T07:42:34;33.15;;;13.20;;
18206;SDS011;9229;52.354;20.886;2023-01-23T07:47:38;34.17;;;13.35;;
18206;SDS011;9229;52.354;20.886;2023-01-23T07:52:40;29.48;;;12.63;;
18206;SDS011;9229;52.354;20.886;2023-01-23T07:57:44;34.58;;;13.52;;
18206;SDS011;9229;52.354;20.886;2023-01-23T08:08:11;30.05;;;13.63;;
18206;SDS011;9229;52.354;20.886;2023-01-23T08:13:15;26.88;;;12.60;;
18206;SDS011;9229;52.354;20.886;2023-01-23T08:18:19;35.00;;;13.32;;
18206;SDS011;9229;52.354;20.886;2023-01-23T08:23:22;36.70;;;13.90;;
18206;SDS011;9229;52.354;20.886;2023-01-23T08:28:25;32.88;;;13.82;;
18206;SDS011;9229;52.354;20.886;2023-01-23T08:33:29;34.17;;;15.13;;
18206;SDS011;9229;52.354;20.886;2023-01-23T08:38:33;33.13;;;14.00;;
18206;SDS011;9229;52.354;20.886;2023-01-23T08:43:35;33.35;;;14.68;;
18206;SDS011;9229;52.354;20.886;2023-01-23T08:48:41;38.53;;;14.25;;
18206;SDS011;9229;52.354;20.886;2023-01-23T08:53:46;31.98;;;12.20;;
18206;SDS011;9229;52.354;20.886;2023-01-23T08:58:49;30.30;;;14.80;;
18206;SDS011;9229;52.354;20.886;2023-01-23T09:03:55;41.17;;;14.95;;
18206;SDS011;9229;52.354;20.886;2023-01-23T09:08:59;38.42;;;14.70;;
18206;SDS011;9229;52.354;20.886;2023-01-23T09:14:01;35.63;;;14.75;;
18206;SDS011;9229;52.354;20.886;2023-01-23T09:19:05;39.28;;;15.38;;
18206;SDS011;9229;52.354;20.886;2023-01-23T09:24:10;38.67;;;13.90;;
18206;SDS011;9229;52.354;20.886;2023-01-23T09:29:13;36.30;;;15.50;;
18206;SDS011;9229;52.354;20.886;2023-01-23T09:34:17;37.72;;;13.98;;
18206;SDS011;9229;52.354;20.886;2023-01-23T09:39:19;34.47;;;15.07;;
18206;SDS011;9229;52.354;20.886;2023-01-23T09:44:23;37.42;;;15.15;;
18206;SDS011;9229;52.354;20.886;2023-01-23T09:49:35;35.75;;;14.73;;
18206;SDS011;9229;52.354;20.886;2023-01-23T09:54:46;36.63;;;14.40;;
18206;SDS011;9229;52.354;20.886;2023-01-23T09:59:50;36.50;;;14.32;;
18206;SDS011;9229;52.354;20.886;2023-01-23T10:04:59;35.97;;;16.33;;
18206;SDS011;9229;52.354;20.886;2023-01-23T10:10:09;38.47;;;15.52;;
18206;SDS011;9229;52.354;20.886;2023-01-23T10:15:41;48.55;;;17.00;;
18206;SDS011;9229;52.354;20.886;2023-01-23T10:21:04;42.47;;;15.05;;
18206;SDS011;9229;52.354;20.886;2023-01-23T10:26:15;43.53;;;15.57;;
18206;SDS011;9229;52.354;20.886;2023-01-23T10:31:27;34.17;;;14.98;;
18206;SDS011;9229;52.354;20.886;2023-01-23T10:36:41;36.08;;;16.38;;
18206;SDS011;9229;52.354;20.886;2023-01-23T10:42:00;41.45;;;16.55;;
18206;SDS011;9229;52.354;20.886;2023-01-23T10:47:03;39.13;;;15.43;;
18206;SDS011;9229;52.354;20.886;2023-01-23T10:52:30;42.42;;;14.65;;
18206;SDS011;9229;52.354;20.886;2023-01-23T10:57:43;43.95;;;16.58;;
18206;SDS011;9229;52.354;20.886;2023-01-23T11:02:48;37.00;;;14.50;;
18206;SDS011;9229;52.354;20.886;2023-01-23T11:07:53;41.38;;;15.88;;
18206;SDS011;9229;52.354;20.886;2023-01-23T11:12:55;31.10;;;15.27;;
18206;SDS011;9229;52.354;20.886;2023-01-23T11:17:59;38.88;;;15.45;;
18206;SDS011;9229;52.354;20.886;2023-01-23T11:23:05;38.05;;;15.70;;
18206;SDS011;9229;52.354;20.886;2023-01-23T11:28:20;31.35;;;14.85;;
18206;SDS011;9229;52.354;20.886;2023-01-23T11:38:55;32.38;;;13.00;;
18206;SDS011;9229;52.354;20.886;2023-01-23T11:44:02;30.55;;;13.52;;
18206;SDS011;9229;52.354;20.886;2023-01-23T11:49:11;32.13;;;14.95;;
18206;SDS011;9229;52.354;20.886;2023-01-23T11:54:45;26.15;;;14.57;;
18206;SDS011;9229;52.354;20.886;2023-01-23T12:00:02;28.48;;;13.63;;
18206;SDS011;9229;52.354;20.886;2023-01-23T12:05:23;34.35;;;13.48;;
18206;SDS011;9229;52.354;20.886;2023-01-23T12:10:44;30.30;;;14.82;;
18206;SDS011;9229;52.354;20.886;2023-01-23T12:16:01;29.40;;;14.55;;
18206;SDS011;9229;52.354;20.886;2023-01-23T12:21:17;27.27;;;13.23;;
18206;SDS011;9229;52.354;20.886;2023-01-23T12:26:20;32.10;;;15.07;;
18206;SDS011;9229;52.354;20.886;2023-01-23T12:31:30;31.77;;;15.60;;
18206;SDS011;9229;52.354;20.886;2023-01-23T12:36:50;31.98;;;16.85;;
18206;SDS011;9229;52.354;20.886;2023-01-23T12:42:06;38.42;;;17.25;;
18206;SDS011;9229;52.354;20.886;2023-01-23T12:47:11;36.13;;;18.05;;
18206;SDS011;9229;52.354;20.886;2023-01-23T12:52:19;33.13;;;15.50;;
18206;SDS011;9229;52.354;20.886;2023-01-23T12:57:26;27.00;;;13.73;;
18206;SDS011;9229;52.354;20.886;2023-01-23T13:02:51;23.42;;;13.27;;
18206;SDS011;9229;52.354;20.886;2023-01-23T13:08:00;29.25;;;14.15;;
18206;SDS011;9229;52.354;20.886;2023-01-23T13:13:09;26.35;;;13.65;;
18206;SDS011;9229;52.354;20.886;2023-01-23T13:18:19;27.42;;;13.07;;
18206;SDS011;9229;52.354;20.886;2023-01-23T13:23:28;25.83;;;14.18;;
18206;SDS011;9229;52.354;20.886;2023-01-23T13:28:34;24.92;;;12.65;;
18206;SDS011;9229;52.354;20.886;2023-01-23T13:33:48;29.50;;;13.77;;
18206;SDS011;9229;52.354;20.886;2023-01-23T13:39:02;22.85;;;12.45;;
18206;SDS011;9229;52.354;20.886;2023-01-23T13:44:27;28.80;;;13.80;;
18206;SDS011;9229;52.354;20.886;2023-01-23T13:49:35;24.42;;;13.05;;
18206;SDS011;9229;52.354;20.886;2023-01-23T13:55:00;26.08;;;12.68;;
18206;SDS011;9229;52.354;20.886;2023-01-23T14:00:25;24.70;;;12.30;;
18206;SDS011;9229;52.354;20.886;2023-01-23T14:05:28;33.38;;;12.70;;
18206;SDS011;9229;52.354;20.886;2023-01-23T14:10:35;25.63;;;12.75;;
18206;SDS011;9229;52.354;20.886;2023-01-23T14:15:43;23.60;;;12.40;;
18206;SDS011;9229;52.354;20.886;2023-01-23T14:21:05;23.70;;;11.77;;
18206;SDS011;9229;52.354;20.886;2023-01-23T14:26:19;22.52;;;11.95;;
18206;SDS011;9229;52.354;20.886;2023-01-23T14:31:29;30.50;;;12.20;;
18206;SDS011;9229;52.354;20.886;2023-01-23T14:36:36;27.10;;;12.82;;
18206;SDS011;9229;52.354;20.886;2023-01-23T14:41:42;24.77;;;12.20;;
18206;SDS011;9229;52.354;20.886;2023-01-23T14:46:46;22.30;;;12.40;;
18206;SDS011;9229;52.354;20.886;2023-01-23T14:51:54;25.67;;;12.55;;
18206;SDS011;9229;52.354;20.886;2023-01-23T14:56:58;23.98;;;12.15;;
18206;SDS011;9229;52.354;20.886;2023-01-23T15:02:22;28.33;;;13.13;;
18206;SDS011;9229;52.354;20.886;2023-01-23T15:07:26;25.50;;;13.00;;
18206;SDS011;9229;52.354;20.886;2023-01-23T15:12:29;24.25;;;12.75;;
18206;SDS011;9229;52.354;20.886;2023-01-23T15:17:32;25.25;;;12.38;;
18206;SDS011;9229;52.354;20.886;2023-01-23T15:22:34;26.00;;;13.57;;
18206;SDS011;9229;52.354;20.886;2023-01-23T15:27:37;28.38;;;12.98;;
18206;SDS011;9229;52.354;20.886;2023-01-23T15:32:40;23.80;;;12.90;;
18206;SDS011;9229;52.354;20.886;2023-01-23T15:37:45;30.08;;;13.90;;
18206;SDS011;9229;52.354;20.886;2023-01-23T15:42:59;31.23;;;14.27;;
18206;SDS011;9229;52.354;20.886;2023-01-23T15:48:05;28.98;;;13.75;;
18206;SDS011;9229;52.354;20.886;2023-01-23T15:53:09;30.58;;;13.98;;
18206;SDS011;9229;52.354;20.886;2023-01-23T15:58:12;27.95;;;13.23;;
18206;SDS011;9229;52.354;20.886;2023-01-23T16:03:18;26.30;;;13.13;;
18206;SDS011;9229;52.354;20.886;2023-01-23T16:08:20;36.25;;;14.18;;
18206;SDS011;9229;52.354;20.886;2023-01-23T16:13:24;29.48;;;13.32;;
18206;SDS011;9229;52.354;20.886;2023-01-23T16:18:27;31.15;;;14.32;;
18206;SDS011;9229;52.354;20.886;2023-01-23T16:23:30;32.35;;;15.07;;
18206;SDS011;9229;52.354;20.886;2023-01-23T16:28:34;43.00;;;15.40;;
18206;SDS011;9229;52.354;20.886;2023-01-23T16:33:37;35.05;;;15.25;;
18206;SDS011;9229;52.354;20.886;2023-01-23T16:38:39;30.88;;;14.30;;
18206;SDS011;9229;52.354;20.886;2023-01-23T16:43:48;34.50;;;14.10;;
18206;SDS011;9229;52.354;20.886;2023-01-23T16:48:51;30.15;;;14.80;;
18206;SDS011;9229;52.354;20.886;2023-01-23T16:53:56;37.30;;;15.73;;
18206;SDS011;9229;52.354;20.886;2023-01-23T16:58:59;32.78;;;13.70;;
18206;SDS011;9229;52.354;20.886;2023-01-23T17:04:03;37.35;;;16.73;;
18206;SDS011;9229;52.354;20.886;2023-01-23T17:09:06;36.88;;;15.82;;
18206;SDS011;9229;52.354;20.886;2023-01-23T17:14:12;31.70;;;15.68;;
18206;SDS011;9229;52.354;20.886;2023-01-23T17:19:19;39.55;;;17.23;;
18206;SDS011;9229;52.354;20.886;2023-01-23T17:24:24;44.63;;;16.90;;
18206;SDS011;9229;52.354;20.886;2023-01-23T17:29:26;37.53;;;15.40;;
18206;SDS011;9229;52.354;20.886;2023-01-23T17:34:32;44.42;;;17.25;;
18206;SDS011;9229;52.354;20.886;2023-01-23T17:39:37;44.22;;;17.02;;
18206;SDS011;9229;52.354;20.886;2023-01-23T17:44:39;46.47;;;18.60;;
18206;SDS011;9229;52.354;20.886;2023-01-23T17:49:43;49.30;;;19.60;;
18206;SDS011;9229;52.354;20.886;2023-01-23T17:54:47;46.58;;;19.30;;
18206;SDS011;9229;52.354;20.886;2023-01-23T17:59:49;58.97;;;24.58;;
18206;SDS011;9229;52.354;20.886;2023-01-23T18:04:53;50.35;;;20.35;;
18206;SDS011;9229;52.354;20.886;2023-01-23T18:09:58;80.95;;;27.88;;
18206;SDS011;9229;52.354;20.886;2023-01-23T18:15:02;47.63;;;19.80;;
18206;SDS011;9229;52.354;20.886;2023-01-23T18:20:17;45.97;;;17.75;;
18206;SDS011;9229;52.354;20.886;2023-01-23T18:25:23;44.25;;;19.13;;
18206;SDS011;9229;52.354;20.886;2023-01-23T18:30:32;53.30;;;19.52;;
18206;SDS011;9229;52.354;20.886;2023-01-23T18:35:46;44.40;;;18.15;;
18206;SDS011;9229;52.354;20.886;2023-01-23T18:41:04;43.03;;;18.50;;
18206;SDS011;9229;52.354;20.886;2023-01-23T18:46:12;45.53;;;18.60;;
18206;SDS011;9229;52.354;20.886;2023-01-23T18:51:21;47.50;;;19.30;;
18206;SDS011;9229;52.354;20.886;2023-01-23T18:56:35;60.20;;;21.88;;
18206;SDS011;9229;52.354;20.886;2023-01-23T19:01:46;53.78;;;20.50;;
18206;SDS011;9229;52.354;20.886;2023-01-23T19:06:54;47.92;;;19.13;;
18206;SDS011;9229;52.354;20.886;2023-01-23T19:11:59;54.75;;;20.77;;
18206;SDS011;9229;52.354;20.886;2023-01-23T19:17:07;53.45;;;21.27;;
18206;SDS011;9229;52.354;20.886;2023-01-23T19:22:18;45.35;;;18.48;;
18206;SDS011;9229;52.354;20.886;2023-01-23T19:27:21;54.00;;;19.35;;
18206;SDS011;9229;52.354;20.886;2023-01-23T19:32:24;50.38;;;19.23;;
18206;SDS011;9229;52.354;20.886;2023-01-23T19:37:28;50.53;;;19.00;;
18206;SDS011;9229;52.354;20.886;2023-01-23T19:42:35;44.58;;;18.15;;
18206;SDS011;9229;52.354;20.886;2023-01-23T19:47:38;56.55;;;21.10;;
18206;SDS011;9229;52.354;20.886;2023-01-23T19:52:42;56.25;;;21.10;;
18206;SDS011;9229;52.354;20.886;2023-01-23T19:57:44;49.05;;;19.42;;
18206;SDS011;9229;52.354;20.886;2023-01-23T20:02:46;53.55;;;19.73;;
18206;SDS011;9229;52.354;20.886;2023-01-23T20:07:50;58.47;;;21.23;;
18206;SDS011;9229;52.354;20.886;2023-01-23T20:12:53;60.53;;;20.45;;
18206;SDS011;9229;52.354;20.886;2023-01-23T20:17:55;51.55;;;19.17;;
18206;SDS011;9229;52.354;20.886;2023-01-23T20:22:59;55.00;;;20.08;;
18206;SDS011;9229;52.354;20.886;2023-01-23T20:28:01;56.20;;;20.42;;
18206;SDS011;9229;52.354;20.886;2023-01-23T20:33:05;63.03;;;21.42;;
18206;SDS011;9229;52.354;20.886;2023-01-23T20:38:12;56.80;;;20.23;;
18206;SDS011;9229;52.354;20.886;2023-01-23T20:43:15;57.30;;;21.55;;
18206;SDS011;9229;52.354;20.886;2023-01-23T20:48:18;59.80;;;22.48;;
18206;SDS011;9229;52.354;20.886;2023-01-23T20:53:24;55.90;;;20.45;;
18206;SDS011;9229;52.354;20.886;2023-01-23T20:58:35;55.33;;;21.25;;
18206;SDS011;9229;52.354;20.886;2023-01-23T21:03:55;71.43;;;21.45;;
18206;SDS011;9229;52.354;20.886;2023-01-23T21:08:59;64.78;;;21.02;;
18206;SDS011;9229;52.354;20.886;2023-01-23T21:14:02;66.90;;;21.33;;
18206;SDS011;9229;52.354;20.886;2023-01-23T21:19:04;62.78;;;20.88;;
18206;SDS011;9229;52.354;20.886;2023-01-23T21:24:08;62.72;;;23.02;;
18206;SDS011;9229;52.354;20.886;2023-01-23T21:29:10;63.90;;;22.63;;
18206;SDS011;9229;52.354;20.886;2023-01-23T21:34:12;60.85;;;19.80;;
18206;SDS011;9229;52.354;20.886;2023-01-23T21:39:16;55.25;;;20.25;;
18206;SDS011;9229;52.354;20.886;2023-01-23T21:44:19;47.58;;;19.48;;
18206;SDS011;9229;52.354;20.886;2023-01-23T21:49:21;51.42;;;19.70;;
18206;SDS011;9229;52.354;20.886;2023-01-23T21:54:25;64.07;;;22.08;;
18206;SDS011;9229;52.354;20.886;2023-01-23T21:59:30;59.53;;;19.83;;
18206;SDS011;9229;52.354;20.886;2023-01-23T22:04:32;55.47;;;19.55;;
18206;SDS011;9229;52.354;20.886;2023-01-23T22:09:35;43.65;;;18.60;;
18206;SDS011;9229;52.354;20.886;2023-01-23T22:14:37;52.40;;;20.77;;
18206;SDS011;9229;52.354;20.886;2023-01-23T22:19:39;57.38;;;19.70;;
18206;SDS011;9229;52.354;20.886;2023-01-23T22:24:44;48.67;;;20.08;;
18206;SDS011;9229;52.354;20.886;2023-01-23T22:29:46;60.42;;;21.38;;
18206;SDS011;9229;52.354;20.886;2023-01-23T22:34:51;50.08;;;20.77;;
18206;SDS011;9229;52.354;20.886;2023-01-23T22:39:55;62.45;;;19.63;;
18206;SDS011;9229;52.354;20.886;2023-01-23T22:44:57;64.07;;;21.58;;
18206;SDS011;9229;52.354;20.886;2023-01-23T22:49:59;57.65;;;20.38;;
18206;SDS011;9229;52.354;20.886;2023-01-23T22:55:03;56.65;;;20.65;;
18206;SDS011;9229;52.354;20.886;2023-01-23T23:00:10;68.28;;;22.35;;
18206;SDS011;9229;52.354;20.886;2023-01-23T23:05:15;47.25;;;19.73;;
18206;SDS011;9229;52.354;20.886;2023-01-23T23:10:18;62.53;;;21.08;;
18206;SDS011;9229;52.354;20.886;2023-01-23T23:15:20;52.95;;;20.42;;
18206;SDS011;9229;52.354;20.886;2023-01-23T23:20:23;60.25;;;19.52;;
18206;SDS011;9229;52.354;20.886;2023-01-23T23:25:26;56.75;;;18.80;;
18206;SDS011;9229;52.354;20.886;2023-01-23T23:30:28;56.65;;;21.10;;
18206;SDS011;9229;52.354;20.886;2023-01-23T23:35:32;54.97;;;20.35;;
18206;SDS011;9229;52.354;20.886;2023-01-23T23:40:36;64.47;;;22.20;;
18206;SDS011;9229;52.354;20.886;2023-01-23T23:45:45;58.85;;;20.85;;
18206;SDS011;9229;52.354;20.886;2023-01-23T23:50:48;62.92;;;23.25;;
18206;SDS011;9229;52.354;20.886;2023-01-23T23:55:52;60.85;;;21.25;;
